Time;durP1;ratioP1;P1;durP2;ratioP2;P2;SDS_P1;SDS_P2;PMS_P1;PMS_P2;Temp;Humidity;BMP_temperature;BMP_pressure;BME280_temperature;BME280_humidity;BME280_pressure;Samples;Min_cycle;Max_cycle;Signal;HPM_P1;HPM_P2
2022/10/29 00:00:38;;;;;;;0.88;0.82;;;13.60;99.90;;;;;;4984321;28;20052;-70
2022/10/29 00:03:04;;;;;;;0.10;0.10;;;13.60;99.90;;;;;;4997171;28;20051;-70
2022/10/29 00:05:33;;;;;;;0.00;0.00;;;13.60;99.90;;;;;;4995830;28;20053;-70
2022/10/29 00:07:59;;;;;;;0.60;0.60;;;13.70;99.90;;;;;;4988112;28;20041;-71
2022/10/29 00:10:25;;;;;;;2.25;1.30;;;13.60;99.90;;;;;;5000026;28;20475;-70
2022/10/29 00:12:51;;;;;;;3.25;1.17;;;13.60;99.90;;;;;;5002977;28;20046;-70
2022/10/29 00:15:17;;;;;;;3.72;1.00;;;13.50;99.90;;;;;;4992894;28;20547;-70
2022/10/29 00:17:42;;;;;;;0.00;0.00;;;13.50;99.90;;;;;;4979341;28;20046;-70
2022/10/29 00:20:08;;;;;;;0.10;0.10;;;13.60;99.90;;;;;;4978440;28;20433;-70
2022/10/29 00:22:34;;;;;;;0.10;0.10;;;13.60;99.90;;;;;;5001166;28;20034;-71
2022/10/29 00:25:00;;;;;;;0.20;0.20;;;13.70;99.90;;;;;;4986149;28;20516;-70
2022/10/29 00:27:26;;;;;;;0.38;0.38;;;13.60;99.90;;;;;;4986782;28;20074;-70
2022/10/29 00:29:53;;;;;;;0.03;0.03;;;13.60;99.90;;;;;;4989203;28;20504;-70
2022/10/29 00:32:19;;;;;;;0.35;0.30;;;13.60;99.90;;;;;;4993667;28;20060;-70
2022/10/29 00:34:44;;;;;;;0.10;0.10;;;13.50;99.90;;;;;;4976330;28;20121;-71
2022/10/29 00:37:10;;;;;;;0.20;0.20;;;13.50;99.90;;;;;;4988616;28;20667;-71
2022/10/29 00:39:36;;;;;;;0.60;0.60;;;13.50;99.90;;;;;;4978353;28;20042;-70
2022/10/29 00:42:03;;;;;;;0.10;0.10;;;13.50;99.90;;;;;;4990067;28;20046;-70
2022/10/29 00:44:37;;;;;;;0.20;0.20;;;13.40;99.90;;;;;;4999631;28;20103;-72
2022/10/29 00:47:21;;;;;;;0.10;0.10;;;13.50;99.90;;;;;;4980832;28;20048;-70
2022/10/29 00:50:02;;;;;;;0.10;0.10;;;13.40;99.90;;;;;;4987024;28;20401;-70
2022/10/29 00:52:31;;;;;;;0.77;0.77;;;13.40;99.90;;;;;;4986870;28;20046;-71
2022/10/29 00:55:01;;;;;;;0.10;0.10;;;13.40;99.90;;;;;;4988493;28;20430;-72
2022/10/29 00:57:38;;;;;;;0.08;0.08;;;13.40;99.90;;;;;;4992783;28;20066;-71
2022/10/29 01:00:05;;;;;;;0.30;0.30;;;13.40;99.90;;;;;;4982743;28;20487;-70
2022/10/29 01:02:33;;;;;;;0.20;0.20;;;13.40;99.90;;;;;;4978622;28;20055;-71
2022/10/29 01:05:01;;;;;;;0.20;0.20;;;13.40;99.90;;;;;;4994602;28;20057;-70
2022/10/29 01:07:27;;;;;;;0.10;0.10;;;13.40;99.90;;;;;;4987014;28;20389;-71
2022/10/29 01:09:53;;;;;;;0.10;0.10;;;13.40;99.90;;;;;;4985421;28;20445;-71
2022/10/29 01:12:34;;;;;;;0.00;0.00;;;13.40;99.90;;;;;;4989336;28;20049;-70
2022/10/29 01:15:13;;;;;;;0.10;0.10;;;13.40;99.90;;;;;;4984433;28;20212;-71
2022/10/29 01:18:10;;;;;;;0.00;0.00;;;13.40;99.90;;;;;;4980641;28;20370;-70
2022/10/29 01:21:07;;;;;;;0.10;0.10;;;13.40;99.90;;;;;;4985801;28;20061;-71
2022/10/29 01:23:54;;;;;;;0.10;0.10;;;13.40;99.90;;;;;;4989258;28;20046;-71
2022/10/29 01:26:41;;;;;;;0.03;0.03;;;13.50;99.90;;;;;;4989986;28;20124;-71
2022/10/29 01:29:48;;;;;;;0.10;0.10;;;13.50;99.90;;;;;;5019904;28;20058;-71
2022/10/29 01:32:46;;;;;;;0.00;0.00;;;13.50;99.90;;;;;;4988432;28;20141;-72
2022/10/29 01:35:14;;;;;;;0.55;0.55;;;13.40;99.90;;;;;;4957967;28;20085;-72
2022/10/29 01:38:01;;;;;;;0.10;0.10;;;13.40;99.90;;;;;;4995124;28;20043;-72
2022/10/29 01:40:34;;;;;;;0.30;0.30;;;13.40;99.90;;;;;;4987154;28;20444;-71
2022/10/29 01:43:17;;;;;;;0.10;0.10;;;13.50;99.90;;;;;;4986614;28;20042;-71
2022/10/29 01:45:47;;;;;;;0.32;0.32;;;13.40;99.90;;;;;;4987673;28;20051;-71
2022/10/29 01:48:17;;;;;;;0.20;0.20;;;13.40;99.90;;;;;;4982469;28;20053;-71
2022/10/29 01:50:48;;;;;;;0.10;0.10;;;13.40;99.90;;;;;;4979003;28;20058;-70
2022/10/29 01:53:13;;;;;;;0.10;0.10;;;13.40;99.90;;;;;;4985068;28;20081;-70
2022/10/29 01:55:39;;;;;;;0.05;0.05;;;13.40;99.90;;;;;;4989075;28;20037;-70
2022/10/29 01:58:06;;;;;;;0.30;0.30;;;13.40;99.90;;;;;;4983093;28;20398;-71
2022/10/29 02:00:47;;;;;;;0.10;0.10;;;13.40;99.90;;;;;;4988189;28;20050;-70
2022/10/29 02:03:32;;;;;;;0.00;0.00;;;13.40;99.90;;;;;;4989488;28;20096;-70
2022/10/29 02:06:00;;;;;;;0.10;0.10;;;13.50;99.90;;;;;;4982836;28;20144;-70
2022/10/29 02:09:03;;;;;;;0.15;0.15;;;13.40;99.90;;;;;;4988025;28;20064;-71
2022/10/29 02:12:07;;;;;;;0.10;0.10;;;13.50;99.90;;;;;;4973425;28;20532;-71
2022/10/29 02:14:38;;;;;;;;;;;13.50;99.90;;;;;;4982454;28;20089;-71
2022/10/29 02:17:05;;;;;;;0.00;0.00;;;13.50;99.90;;;;;;4983523;28;19933;-71
2022/10/29 02:19:32;;;;;;;0.10;0.10;;;13.50;99.90;;;;;;4987441;28;20417;-70
2022/10/29 02:21:58;;;;;;;0.10;0.10;;;13.40;99.90;;;;;;4976832;28;20066;-71
2022/10/29 02:24:24;;;;;;;0.20;0.20;;;13.40;99.90;;;;;;4987473;28;20046;-70
2022/10/29 02:26:51;;;;;;;0.10;0.10;;;13.40;99.90;;;;;;4990263;28;20042;-70
2022/10/29 02:29:17;;;;;;;0.10;0.10;;;13.40;99.90;;;;;;4984978;28;20110;-70
2022/10/29 02:31:43;;;;;;;0.03;0.03;;;13.30;99.90;;;;;;4975773;28;20477;-70
2022/10/29 02:34:08;;;;;;;0.10;0.10;;;13.30;99.90;;;;;;4979999;28;20394;-70
2022/10/29 02:36:34;;;;;;;0.00;0.00;;;13.30;99.90;;;;;;4986134;28;20049;-70
2022/10/29 02:39:00;;;;;;;0.20;0.20;;;13.30;99.90;;;;;;4983353;28;20050;-72
2022/10/29 02:41:25;;;;;;;0.10;0.10;;;13.30;99.90;;;;;;4982702;28;20038;-73
2022/10/29 02:43:51;;;;;;;0.10;0.10;;;13.30;99.90;;;;;;4982258;28;20489;-73
2022/10/29 02:46:20;;;;;;;0.10;0.10;;;13.30;99.90;;;;;;4996369;28;20057;-72
2022/10/29 02:48:46;;;;;;;0.03;0.03;;;13.30;99.90;;;;;;4988125;28;20065;-73
2022/10/29 02:51:12;;;;;;;0.25;0.20;;;13.30;99.90;;;;;;4980470;28;20042;-72
2022/10/29 02:53:38;;;;;;;0.47;0.30;;;13.20;99.90;;;;;;4995092;28;20888;-73
2022/10/29 02:56:05;;;;;;;0.05;0.05;;;13.20;99.90;;;;;;4993679;28;20401;-73
2022/10/29 02:58:31;;;;;;;0.10;0.10;;;13.20;99.90;;;;;;4998545;28;20072;-72
2022/10/29 03:00:57;;;;;;;0.10;0.10;;;13.10;99.90;;;;;;4991870;28;20046;-73
2022/10/29 03:03:23;;;;;;;0.10;0.10;;;13.20;99.90;;;;;;4985439;28;20060;-72
2022/10/29 03:05:49;;;;;;;0.10;0.10;;;13.20;99.90;;;;;;4992112;28;20576;-72
2022/10/29 03:08:15;;;;;;;0.10;0.10;;;13.10;99.90;;;;;;4995993;28;20050;-72
2022/10/29 03:10:40;;;;;;;0.65;0.55;;;13.10;99.90;;;;;;4994118;28;20092;-72
2022/10/29 03:13:06;;;;;;;0.08;0.08;;;13.10;99.90;;;;;;4990715;28;20092;-73
2022/10/29 03:15:32;;;;;;;0.25;0.25;;;13.00;99.90;;;;;;4986853;28;20050;-73
2022/10/29 03:17:57;;;;;;;0.05;0.05;;;13.00;99.90;;;;;;4981585;28;20056;-73
2022/10/29 03:20:23;;;;;;;0.10;0.10;;;13.00;99.90;;;;;;5021381;28;20153;-73
2022/10/29 03:22:49;;;;;;;0.10;0.10;;;13.00;99.90;;;;;;4982464;28;20129;-72
2022/10/29 03:25:14;;;;;;;0.08;0.08;;;13.00;99.90;;;;;;4980625;28;20039;-72
2022/10/29 03:27:42;;;;;;;0.10;0.10;;;12.90;99.90;;;;;;4989850;28;20054;-72
2022/10/29 03:30:09;;;;;;;0.10;0.10;;;12.90;99.90;;;;;;4991221;28;20520;-72
2022/10/29 03:32:39;;;;;;;0.10;0.10;;;12.90;99.90;;;;;;4985196;28;20046;-71
2022/10/29 03:35:06;;;;;;;0.00;0.00;;;12.90;99.90;;;;;;4997849;28;20046;-71
2022/10/29 03:37:31;;;;;;;0.10;0.10;;;12.90;99.90;;;;;;4990368;28;20053;-71
2022/10/29 03:39:57;;;;;;;0.00;0.00;;;12.90;99.90;;;;;;4988999;28;20117;-71
2022/10/29 03:42:23;;;;;;;0.30;0.30;;;12.90;99.90;;;;;;5001217;28;20108;-71
2022/10/29 03:44:48;;;;;;;0.10;0.10;;;12.90;99.90;;;;;;4981427;28;20049;-71
2022/10/29 03:47:14;;;;;;;0.10;0.10;;;12.80;99.90;;;;;;4995600;28;20100;-71
2022/10/29 03:49:39;;;;;;;0.10;0.10;;;12.90;99.90;;;;;;4987520;28;20051;-71
2022/10/29 03:52:05;;;;;;;0.10;0.10;;;12.90;99.90;;;;;;4990873;28;20050;-70
2022/10/29 03:54:31;;;;;;;0.00;0.00;;;12.90;99.90;;;;;;4988746;28;20055;-71
2022/10/29 03:56:56;;;;;;;0.35;0.35;;;12.90;99.90;;;;;;4976735;28;20058;-71
2022/10/29 03:59:22;;;;;;;0.10;0.10;;;13.00;99.90;;;;;;4983182;28;20429;-71
2022/10/29 04:01:47;;;;;;;0.10;0.10;;;12.90;99.90;;;;;;4995166;28;20093;-70
2022/10/29 04:04:13;;;;;;;0.10;0.10;;;13.00;99.90;;;;;;4994605;28;20460;-71
2022/10/29 04:06:39;;;;;;;0.05;0.05;;;13.00;99.90;;;;;;4980625;28;20122;-71
2022/10/29 04:09:04;;;;;;;0.10;0.10;;;13.00;99.90;;;;;;4987986;28;20105;-71
2022/10/29 04:11:30;;;;;;;0.10;0.10;;;12.90;99.90;;;;;;4985600;28;20070;-71
2022/10/29 04:13:56;;;;;;;0.00;0.00;;;12.90;99.90;;;;;;4982448;28;20038;-71
2022/10/29 04:16:21;;;;;;;0.20;0.20;;;12.80;99.90;;;;;;4984703;28;20310;-71
2022/10/29 04:18:48;;;;;;;0.00;0.00;;;12.80;99.90;;;;;;4990857;28;20477;-71
2022/10/29 04:21:15;;;;;;;0.10;0.10;;;12.80;99.90;;;;;;4986718;28;20043;-71
2022/10/29 04:23:40;;;;;;;0.10;0.10;;;12.80;99.90;;;;;;4991483;28;20383;-71
2022/10/29 04:26:06;;;;;;;0.10;0.10;;;12.80;99.90;;;;;;4991581;28;20034;-70
2022/10/29 04:28:32;;;;;;;0.08;0.08;;;12.80;99.90;;;;;;4985746;28;20038;-71
2022/10/29 04:31:06;;;;;;;0.10;0.10;;;12.90;99.90;;;;;;5003455;28;20132;-71
2022/10/29 04:33:31;;;;;;;0.10;0.10;;;12.90;99.90;;;;;;4996918;28;20516;-71
2022/10/29 04:35:57;;;;;;;0.32;0.32;;;12.90;99.90;;;;;;4982470;28;20038;-71
2022/10/29 04:38:23;;;;;;;0.05;0.05;;;12.90;99.90;;;;;;4992081;28;20124;-71
2022/10/29 04:40:49;;;;;;;0.10;0.10;;;12.90;99.90;;;;;;4989882;28;20165;-71
2022/10/29 04:43:15;;;;;;;0.10;0.10;;;13.00;99.90;;;;;;4989272;28;20038;-71
2022/10/29 04:45:41;;;;;;;0.55;0.55;;;13.00;99.90;;;;;;4991401;28;20357;-70
2022/10/29 04:48:08;;;;;;;0.22;0.22;;;13.10;99.90;;;;;;4996723;28;20194;-70
2022/10/29 04:50:36;;;;;;;0.10;0.10;;;13.00;99.90;;;;;;4991233;28;20053;-70
2022/10/29 04:53:04;;;;;;;0.30;0.30;;;13.10;99.90;;;;;;4987037;28;20049;-70
2022/10/29 04:55:29;;;;;;;0.00;0.00;;;13.10;99.90;;;;;;4987567;28;20046;-70
2022/10/29 04:57:56;;;;;;;0.10;0.10;;;13.10;99.90;;;;;;4985772;28;20069;-71
2022/10/29 05:00:22;;;;;;;0.10;0.10;;;13.10;99.90;;;;;;4979406;28;20089;-70
2022/10/29 05:02:52;;;;;;;0.20;0.20;;;13.20;99.90;;;;;;4984489;28;20046;-69
2022/10/29 05:05:20;;;;;;;0.10;0.10;;;13.20;99.90;;;;;;4983174;28;20046;-70
2022/10/29 05:07:46;;;;;;;0.10;0.10;;;13.20;99.90;;;;;;4987597;28;20046;-70
2022/10/29 05:10:12;;;;;;;0.25;0.25;;;13.20;99.90;;;;;;4990121;28;20382;-70
2022/10/29 05:12:38;;;;;;;0.30;0.30;;;13.30;99.90;;;;;;4986080;28;20046;-71
2022/10/29 05:15:04;;;;;;;0.00;0.00;;;13.30;99.90;;;;;;4983861;28;20038;-70
2022/10/29 05:17:31;;;;;;;0.10;0.10;;;13.30;99.90;;;;;;4992693;28;20046;-70
2022/10/29 05:19:56;;;;;;;0.10;0.10;;;13.40;99.90;;;;;;4977021;28;20059;-70
2022/10/29 05:22:22;;;;;;;0.10;0.10;;;13.40;99.90;;;;;;4989058;28;20080;-70
2022/10/29 05:24:47;;;;;;;0.17;0.17;;;13.40;99.90;;;;;;4984302;28;20051;-70
2022/10/29 05:27:13;;;;;;;0.10;0.10;;;13.50;99.90;;;;;;4990035;28;20120;-70
2022/10/29 05:29:39;;;;;;;1.52;1.13;;;13.50;99.90;;;;;;4986693;28;20038;-70
2022/10/29 05:32:04;;;;;;;0.10;0.10;;;13.50;99.90;;;;;;4987317;28;20069;-70
2022/10/29 05:34:30;;;;;;;0.10;0.10;;;13.40;99.90;;;;;;4989744;28;20099;-69
2022/10/29 05:36:56;;;;;;;0.10;0.10;;;13.50;99.90;;;;;;4986815;28;20489;-70
2022/10/29 05:39:21;;;;;;;0.00;0.00;;;13.50;99.90;;;;;;4983156;28;20046;-71
2022/10/29 05:41:47;;;;;;;0.22;0.22;;;13.50;99.90;;;;;;4995748;28;20132;-70
2022/10/29 05:44:13;;;;;;;0.50;0.50;;;13.50;99.90;;;;;;4987630;28;20513;-70
2022/10/29 05:46:39;;;;;;;0.55;0.55;;;13.50;99.90;;;;;;4984824;28;20047;-70
2022/10/29 05:49:04;;;;;;;0.10;0.10;;;13.50;99.90;;;;;;4990657;28;20401;-70
2022/10/29 05:51:30;;;;;;;0.00;0.00;;;13.50;99.90;;;;;;4989492;28;20085;-70
2022/10/29 05:53:56;;;;;;;0.00;0.00;;;13.50;99.90;;;;;;4993628;28;20050;-70
2022/10/29 05:56:21;;;;;;;0.20;0.20;;;13.50;99.90;;;;;;4983804;28;20136;-71
2022/10/29 05:58:49;;;;;;;0.20;0.20;;;13.40;99.90;;;;;;4988103;28;20046;-70
2022/10/29 06:01:15;;;;;;;0.20;0.20;;;13.40;99.90;;;;;;4988588;28;20042;-70
2022/10/29 06:03:40;;;;;;;0.80;0.45;;;13.40;99.90;;;;;;4986256;28;20058;-70
2022/10/29 06:06:09;;;;;;;0.30;0.30;;;13.40;99.90;;;;;;4979313;28;20038;-70
2022/10/29 06:08:34;;;;;;;0.00;0.00;;;13.40;99.90;;;;;;4980207;28;20058;-71
2022/10/29 06:11:01;;;;;;;0.52;0.52;;;13.40;99.90;;;;;;4983711;28;20053;-70
2022/10/29 06:13:29;;;;;;;0.10;0.10;;;13.40;99.90;;;;;;4989182;28;20042;-70
2022/10/29 06:15:58;;;;;;;0.05;0.05;;;13.40;99.90;;;;;;4987229;28;20468;-70
2022/10/29 06:18:28;;;;;;;0.10;0.10;;;13.40;99.90;;;;;;4988334;28;20061;-70
2022/10/29 06:20:56;;;;;;;1.15;1.02;;;13.40;99.90;;;;;;4979738;28;20490;-71
2022/10/29 06:23:22;;;;;;;0.13;0.13;;;13.40;99.90;;;;;;4985872;28;20053;-71
2022/10/29 06:25:48;;;;;;;0.40;0.40;;;13.40;99.90;;;;;;4984645;28;20038;-70
2022/10/29 06:28:15;;;;;;;0.10;0.10;;;13.30;99.90;;;;;;4984193;28;20050;-70
2022/10/29 06:30:45;;;;;;;0.57;0.32;;;13.30;99.90;;;;;;4990067;28;20468;-70
2022/10/29 06:33:10;;;;;;;0.20;0.20;;;13.30;99.90;;;;;;4977602;28;20828;-69
2022/10/29 06:35:36;;;;;;;0.00;0.00;;;13.20;99.90;;;;;;4989451;28;20053;-71
2022/10/29 06:38:02;;;;;;;0.20;0.20;;;13.20;99.90;;;;;;4990812;28;20043;-71
2022/10/29 06:40:28;;;;;;;0.20;0.20;;;13.30;99.90;;;;;;5004854;28;20051;-71
2022/10/29 06:43:01;;;;;;;0.17;0.17;;;13.30;99.90;;;;;;4984936;28;20047;-71
2022/10/29 06:45:27;;;;;;;2.65;0.85;;;13.30;99.90;;;;;;4987947;28;20124;-71
2022/10/29 06:47:53;;;;;;;1.38;0.45;;;13.20;99.90;;;;;;4986186;28;20030;-70
2022/10/29 06:50:19;;;;;;;0.05;0.05;;;13.20;99.90;;;;;;4982698;28;20038;-71
2022/10/29 06:52:58;;;;;;;0.00;0.00;;;13.20;99.90;;;;;;4986870;28;20050;-72
2022/10/29 06:55:25;;;;;;;0.05;0.05;;;13.30;99.90;;;;;;4983109;28;20047;-72
2022/10/29 06:58:10;;;;;;;0.40;0.40;;;13.20;99.90;;;;;;4988084;28;20112;-72
2022/10/29 07:00:36;;;;;;;0.08;0.08;;;13.20;99.90;;;;;;4984782;28;20062;-72
2022/10/29 07:03:03;;;;;;;0.20;0.20;;;13.20;99.90;;;;;;4983506;28;20043;-71
2022/10/29 07:05:30;;;;;;;0.03;0.03;;;13.30;99.90;;;;;;4987618;28;20042;-71
2022/10/29 07:07:57;;;;;;;0.43;0.35;;;13.30;99.90;;;;;;4986305;28;20042;-72
2022/10/29 07:10:23;;;;;;;0.25;0.25;;;13.30;99.90;;;;;;4982494;28;20038;-72
2022/10/29 07:12:49;;;;;;;0.08;0.08;;;13.30;99.90;;;;;;4986356;28;20050;-72
2022/10/29 07:15:14;;;;;;;0.17;0.17;;;13.30;99.90;;;;;;4984427;28;20098;-72
2022/10/29 07:17:40;;;;;;;0.20;0.20;;;13.30;99.90;;;;;;4984932;28;20301;-72
2022/10/29 07:20:07;;;;;;;0.10;0.10;;;13.40;99.90;;;;;;4986865;28;20811;-72
2022/10/29 07:22:34;;;;;;;0.20;0.20;;;13.30;99.90;;;;;;4990753;28;20945;-72
2022/10/29 07:24:59;;;;;;;0.10;0.10;;;13.40;99.90;;;;;;4989638;28;20058;-72
2022/10/29 07:27:26;;;;;;;0.10;0.10;;;13.40;99.90;;;;;;4988354;28;20034;-72
2022/10/29 07:29:52;;;;;;;0.22;0.22;;;13.40;99.90;;;;;;4989036;28;20050;-71
2022/10/29 07:32:18;;;;;;;0.10;0.10;;;13.50;99.90;;;;;;4982120;28;20150;-71
2022/10/29 07:34:43;;;;;;;0.10;0.10;;;13.50;99.90;;;;;;5000638;28;20089;-72
2022/10/29 07:37:09;;;;;;;0.50;0.50;;;13.50;99.90;;;;;;4983040;28;20043;-72
2022/10/29 07:39:34;;;;;;;0.10;0.10;;;13.50;99.90;;;;;;4992674;28;20047;-71
2022/10/29 07:42:00;;;;;;;0.10;0.10;;;13.50;99.90;;;;;;4983640;28;20042;-73
2022/10/29 07:44:26;;;;;;;0.20;0.20;;;13.60;99.90;;;;;;4981581;28;20493;-72
2022/10/29 07:46:51;;;;;;;0.10;0.10;;;13.60;99.90;;;;;;4988496;28;20046;-71
2022/10/29 07:49:17;;;;;;;0.52;0.52;;;13.70;99.90;;;;;;4980005;28;20494;-72
2022/10/29 07:51:43;;;;;;;0.43;0.43;;;13.70;99.90;;;;;;4988159;28;20429;-71
2022/10/29 07:54:08;;;;;;;0.15;0.15;;;13.70;99.90;;;;;;4982951;28;20049;-71
2022/10/29 07:56:34;;;;;;;0.20;0.20;;;13.70;99.90;;;;;;4988019;28;20045;-72
2022/10/29 07:59:00;;;;;;;1.75;0.63;;;13.70;99.90;;;;;;4987223;28;20042;-72
2022/10/29 08:01:25;;;;;;;0.40;0.40;;;13.80;99.90;;;;;;4996758;28;20112;-71
2022/10/29 08:03:51;;;;;;;0.10;0.10;;;13.80;99.90;;;;;;4997536;28;20546;-72
2022/10/29 08:06:17;;;;;;;0.20;0.20;;;13.80;99.90;;;;;;4993407;28;20057;-71
2022/10/29 08:08:43;;;;;;;0.17;0.17;;;13.90;99.90;;;;;;4991359;28;20057;-72
2022/10/29 08:11:08;;;;;;;0.55;0.55;;;13.80;99.90;;;;;;4998705;28;20409;-71
2022/10/29 08:13:34;;;;;;;0.47;0.47;;;13.90;99.90;;;;;;4991684;28;20057;-71
2022/10/29 08:16:00;;;;;;;0.20;0.20;;;13.90;99.90;;;;;;4976642;28;20054;-73
2022/10/29 08:18:25;;;;;;;0.00;0.00;;;14.00;99.90;;;;;;4985135;28;20043;-71
2022/10/29 08:20:51;;;;;;;0.10;0.10;;;14.00;99.90;;;;;;4996746;28;20063;-72
2022/10/29 08:23:17;;;;;;;0.32;0.32;;;14.10;99.90;;;;;;4988829;28;20043;-72
2022/10/29 08:25:43;;;;;;;4.65;0.40;;;14.10;99.90;;;;;;4990804;28;20050;-72
2022/10/29 08:28:13;;;;;;;0.10;0.10;;;14.10;99.90;;;;;;4988746;28;20054;-72
2022/10/29 08:30:39;;;;;;;0.43;0.43;;;14.20;99.90;;;;;;4989034;28;20068;-71
2022/10/29 08:33:05;;;;;;;0.25;0.25;;;14.20;99.90;;;;;;4997720;28;20049;-72
2022/10/29 08:35:32;;;;;;;0.10;0.10;;;14.20;99.90;;;;;;4981283;28;20069;-72
2022/10/29 08:37:58;;;;;;;0.30;0.30;;;14.20;99.90;;;;;;4983289;28;20505;-72
2022/10/29 08:40:42;;;;;;;0.10;0.10;;;14.20;99.90;;;;;;4980879;28;20046;-73
2022/10/29 08:43:34;;;;;;;0.05;0.05;;;14.20;99.90;;;;;;4998347;28;20049;-72
2022/10/29 08:46:00;;;;;;;0.10;0.10;;;14.30;99.90;;;;;;4991082;28;20517;-72
2022/10/29 08:48:50;;;;;;;0.00;0.00;;;14.30;99.90;;;;;;4983526;28;20042;-72
2022/10/29 08:51:24;;;;;;;0.15;0.15;;;14.40;99.90;;;;;;5001525;28;20124;-72
2022/10/29 08:53:52;;;;;;;0.75;0.75;;;14.40;99.90;;;;;;4984408;28;20038;-72
2022/10/29 08:56:28;;;;;;;0.10;0.10;;;14.40;99.90;;;;;;4994960;28;20042;-71
2022/10/29 08:59:00;;;;;;;0.52;0.28;;;14.50;99.90;;;;;;4981058;28;20050;-71
2022/10/29 09:01:26;;;;;;;0.65;0.65;;;14.50;99.90;;;;;;4986911;28;20050;-71
2022/10/29 09:03:52;;;;;;;0.77;0.77;;;14.50;99.90;;;;;;4983022;28;20478;-71
2022/10/29 09:06:33;;;;;;;2.55;0.63;;;14.50;99.90;;;;;;4994209;28;20034;-71
2022/10/29 09:09:32;;;;;;;0.10;0.10;;;14.50;99.90;;;;;;4984210;28;20433;-70
2022/10/29 09:12:35;;;;;;;0.20;0.20;;;14.60;99.90;;;;;;4991689;28;20069;-71
2022/10/29 09:15:21;;;;;;;0.13;0.13;;;14.50;99.90;;;;;;4986518;28;20130;-71
2022/10/29 09:18:10;;;;;;;0.10;0.10;;;14.50;99.90;;;;;;4991538;28;20344;-71
2022/10/29 09:20:39;;;;;;;1.00;0.80;;;14.50;99.90;;;;;;4991455;28;20058;-72
2022/10/29 09:23:08;;;;;;;0.08;0.08;;;14.50;99.90;;;;;;4984073;28;20042;-70
2022/10/29 09:25:56;;;;;;;0.98;0.63;;;14.50;99.90;;;;;;4991353;28;20809;-71
2022/10/29 09:28:32;;;;;;;0.10;0.10;;;14.60;99.90;;;;;;4988300;28;20051;-71
2022/10/29 09:30:58;;;;;;;0.20;0.20;;;14.50;99.90;;;;;;4974545;28;20046;-71
2022/10/29 09:33:25;;;;;;;0.47;0.47;;;14.60;99.90;;;;;;4978896;28;20483;-71
2022/10/29 09:35:56;;;;;;;0.40;0.40;;;14.70;99.90;;;;;;4976240;28;20078;-71
2022/10/29 09:38:31;;;;;;;1.30;1.17;;;14.70;99.90;;;;;;4979826;28;20043;-71
2022/10/29 09:40:58;;;;;;;0.85;0.85;;;14.80;99.90;;;;;;4990105;28;20069;-71
2022/10/29 09:43:51;;;;;;;0.10;0.10;;;14.90;99.90;;;;;;4985280;28;20121;-71
2022/10/29 09:46:32;;;;;;;0.35;0.35;;;15.10;99.90;;;;;;4977919;28;20497;-71
2022/10/29 09:49:07;;;;;;;0.38;0.38;;;15.20;99.90;;;;;;4988617;28;20394;-71
2022/10/29 09:51:59;;;;;;;0.85;0.85;;;15.30;99.90;;;;;;4978577;28;20053;-71
2022/10/29 09:54:28;;;;;;;0.15;0.15;;;15.30;99.90;;;;;;4975824;28;20092;-71
2022/10/29 09:56:55;;;;;;;0.57;0.40;;;15.30;99.90;;;;;;4975459;28;20050;-71
2022/10/29 09:59:34;;;;;;;1.23;0.82;;;15.30;99.90;;;;;;4989064;28;20046;-71
2022/10/29 10:01:59;;;;;;;0.55;0.55;;;15.40;99.90;;;;;;4988451;28;20485;-71
2022/10/29 10:04:36;;;;;;;0.20;0.20;;;15.60;99.90;;;;;;4975819;28;20053;-70
2022/10/29 10:07:04;;;;;;;0.30;0.30;;;15.60;99.90;;;;;;4981816;28;20046;-71
2022/10/29 10:09:51;;;;;;;0.85;0.85;;;15.70;99.90;;;;;;4991705;28;20105;-71
2022/10/29 10:12:18;;;;;;;2.15;0.63;;;15.70;99.90;;;;;;4990398;28;20510;-71
2022/10/29 10:14:46;;;;;;;0.43;0.35;;;15.80;99.90;;;;;;4980234;28;20054;-71
2022/10/29 10:17:12;;;;;;;0.20;0.20;;;15.80;99.90;;;;;;5003577;28;20102;-72
2022/10/29 10:19:44;;;;;;;0.10;0.10;;;15.90;99.90;;;;;;4993108;28;20145;-71
2022/10/29 10:22:19;;;;;;;1.15;0.77;;;15.90;99.90;;;;;;4978934;28;20058;-72
2022/10/29 10:24:45;;;;;;;0.10;0.10;;;15.90;99.90;;;;;;4988337;28;20046;-71
2022/10/29 10:27:16;;;;;;;1.10;0.95;;;16.00;99.90;;;;;;4992834;28;20191;-71
2022/10/29 10:29:42;;;;;;;1.00;0.80;;;16.00;99.90;;;;;;4989379;28;20049;-71
2022/10/29 10:32:13;;;;;;;0.00;0.00;;;16.10;99.90;;;;;;4987880;28;20054;-72
2022/10/29 10:34:39;;;;;;;0.22;0.15;;;16.20;99.90;;;;;;4981528;28;20051;-72
2022/10/29 10:37:17;;;;;;;0.47;0.47;;;16.30;99.90;;;;;;4992217;28;20442;-72
2022/10/29 10:39:46;;;;;;;0.60;0.55;;;16.30;99.90;;;;;;4975080;28;20043;-72
2022/10/29 10:42:26;;;;;;;0.20;0.20;;;16.30;99.90;;;;;;4978168;28;20040;-72
2022/10/29 10:45:04;;;;;;;0.35;0.35;;;16.40;99.90;;;;;;4990766;28;20064;-71
2022/10/29 10:47:34;;;;;;;0.20;0.20;;;16.40;99.90;;;;;;4988651;28;20041;-72
2022/10/29 10:50:23;;;;;;;0.20;0.20;;;16.40;99.90;;;;;;4984682;28;20082;-72
2022/10/29 10:52:50;;;;;;;0.10;0.10;;;16.40;99.90;;;;;;4989893;28;20490;-72
2022/10/29 10:55:37;;;;;;;0.52;0.25;;;16.50;99.90;;;;;;4978768;28;20079;-72
2022/10/29 10:58:36;;;;;;;0.20;0.20;;;16.60;99.90;;;;;;4989804;28;20394;-71
2022/10/29 11:01:05;;;;;;;1.55;0.95;;;16.70;99.90;;;;;;4989233;28;20050;-71
2022/10/29 11:03:46;;;;;;;0.10;0.10;;;16.80;99.90;;;;;;4982030;28;20054;-72
2022/10/29 11:06:23;;;;;;;0.00;0.00;;;16.90;99.90;;;;;;4983718;28;20368;-72
2022/10/29 11:08:57;;;;;;;0.10;0.10;;;16.90;99.90;;;;;;4984004;28;20055;-71
2022/10/29 11:11:58;;;;;;;0.00;0.00;;;16.90;99.90;;;;;;4985907;28;20053;-71
2022/10/29 11:14:41;;;;;;;1.55;1.00;;;16.90;99.90;;;;;;4983351;28;20054;-72
2022/10/29 11:17:28;;;;;;;0.00;0.00;;;17.00;99.90;;;;;;4986515;28;20561;-72
2022/10/29 11:20:18;;;;;;;0.20;0.20;;;17.00;99.90;;;;;;5010109;28;20121;-72
2022/10/29 11:23:00;;;;;;;0.40;0.40;;;17.10;99.90;;;;;;4998683;28;20065;-72
2022/10/29 11:26:06;;;;;;;0.00;0.00;;;17.10;99.90;;;;;;4990179;28;20057;-72
2022/10/29 11:28:37;;;;;;;1.67;1.10;;;17.20;99.90;;;;;;4974072;28;20078;-72
2022/10/29 11:31:31;;;;;;;0.28;0.28;;;17.20;99.90;;;;;;4996617;28;20046;-71
2022/10/29 11:34:35;;;;;;;2.17;1.05;;;17.30;99.90;;;;;;4987759;28;20065;-71
2022/10/29 11:37:19;;;;;;;;;;;17.30;99.90;;;;;;4994149;28;20050;-71
2022/10/29 11:39:52;;;;;;;1.65;1.02;;;17.30;99.90;;;;;;4988340;28;20226;-71
2022/10/29 11:42:17;;;;;;;0.75;0.73;;;17.20;99.90;;;;;;4981737;28;20077;-71
2022/10/29 11:44:43;;;;;;;2.85;1.85;;;17.30;99.90;;;;;;4990669;28;20416;-72
2022/10/29 11:47:17;;;;;;;1.60;1.38;;;17.30;99.90;;;;;;4985914;28;20556;-72
2022/10/29 11:50:17;;;;;;;0.65;0.65;;;17.30;99.90;;;;;;4979098;28;20050;-71
2022/10/29 11:52:54;;;;;;;0.60;0.60;;;17.70;99.90;;;;;;4985860;28;20054;-71
2022/10/29 11:55:42;;;;;;;0.10;0.10;;;18.00;99.90;;;;;;4987059;28;20528;-71
2022/10/29 11:58:20;;;;;;;0.22;0.22;;;18.00;99.90;;;;;;4988143;28;20051;-71
2022/10/29 12:01:03;;;;;;;5.68;1.35;;;17.90;99.90;;;;;;4986346;28;20097;-71
2022/10/29 12:03:55;;;;;;;0.30;0.30;;;17.90;99.90;;;;;;4983430;28;20043;-71
2022/10/29 12:06:53;;;;;;;0.30;0.30;;;17.80;99.90;;;;;;4989017;28;20498;-72
2022/10/29 12:09:38;;;;;;;1.60;1.50;;;17.80;99.90;;;;;;4985278;28;20152;-71
2022/10/29 12:12:16;;;;;;;0.05;0.05;;;18.00;99.90;;;;;;4992802;28;20061;-71
2022/10/29 12:15:04;;;;;;;0.85;0.85;;;18.30;99.90;;;;;;4978108;28;20063;-68
2022/10/29 12:17:44;;;;;;;0.95;0.55;;;18.70;99.90;;;;;;5010836;28;20580;-68
2022/10/29 12:20:40;;;;;;;1.02;0.98;;;19.20;99.90;;;;;;4996979;28;20117;-68
2022/10/29 12:23:23;;;;;;;0.98;0.98;;;19.50;99.90;;;;;;4976233;28;20047;-67
2022/10/29 12:25:49;;;;;;;0.38;0.38;;;19.50;99.90;;;;;;4985160;28;20097;-68
2022/10/29 12:28:23;;;;;;;0.00;0.00;;;19.60;99.90;;;;;;4991751;28;20079;-68
2022/10/29 12:30:59;;;;;;;1.17;0.50;;;19.60;99.90;;;;;;5001310;28;20050;-68
2022/10/29 12:33:38;;;;;;;0.10;0.10;;;19.40;99.90;;;;;;4995936;28;20055;-67
2022/10/29 12:36:36;;;;;;;0.30;0.30;;;19.20;99.90;;;;;;4991253;28;20125;-67
2022/10/29 12:39:10;;;;;;;0.85;0.38;;;19.00;99.90;;;;;;5000833;28;20062;-71
2022/10/29 12:41:45;;;;;;;0.25;0.25;;;18.90;99.90;;;;;;4990980;28;20096;-70
2022/10/29 12:44:27;;;;;;;0.20;0.20;;;18.90;99.90;;;;;;4994402;28;20105;-70
2022/10/29 12:47:13;;;;;;;0.88;0.85;;;18.80;99.90;;;;;;4986039;28;20042;-70
2022/10/29 12:49:59;;;;;;;1.45;0.82;;;18.60;99.90;;;;;;4973277;28;20157;-70
2022/10/29 12:52:51;;;;;;;0.20;0.20;;;18.60;99.90;;;;;;4983413;28;20167;-70
2022/10/29 12:55:18;;;;;;;0.45;0.45;;;18.90;99.90;;;;;;4985818;28;20125;-70
2022/10/29 12:57:43;;;;;;;0.63;0.63;;;18.90;99.90;;;;;;4985922;28;20054;-70
2022/10/29 13:00:26;;;;;;;0.10;0.10;;;19.00;99.90;;;;;;4992080;28;20103;-70
2022/10/29 13:02:55;;;;;;;0.10;0.10;;;19.20;99.90;;;;;;4990211;28;20042;-70
2022/10/29 13:05:32;;;;;;;2.75;1.90;;;19.20;99.90;;;;;;4973490;28;20054;-71
2022/10/29 13:08:09;;;;;;;0.17;0.17;;;19.30;99.90;;;;;;4991215;28;20406;-70
2022/10/29 13:10:35;;;;;;;0.30;0.30;;;19.20;99.90;;;;;;4985806;28;20113;-70